createdAt,value
2022-09-26T00:02:23.374Z,5.22
2022-09-26T00:04:50.915Z,5.22
2022-09-26T00:07:24.866Z,5.63
2022-09-26T00:09:52.716Z,5.10
2022-09-26T00:12:34.064Z,4.57
2022-09-26T00:15:08.011Z,3.80
2022-09-26T00:17:41.929Z,4.85
2022-09-26T00:20:09.279Z,4.78
2022-09-26T00:22:36.400Z,4.60
2022-09-26T00:25:09.910Z,4.72
2022-09-26T00:27:37.081Z,4.35
2022-09-26T00:30:12.094Z,5.10
2022-09-26T00:32:39.669Z,4.80
2022-09-26T00:37:40.955Z,3.80
2022-09-26T00:40:08.462Z,4.03
2022-09-26T00:42:41.913Z,4.13
2022-09-26T00:45:09.652Z,3.67
2022-09-26T00:47:54.134Z,4.07
2022-09-26T00:50:23.523Z,3.83
2022-09-26T00:53:30.011Z,4.22
2022-09-26T00:56:00.470Z,3.80
2022-09-26T00:58:36.871Z,3.75
2022-09-26T01:01:04.221Z,3.70
2022-09-26T01:03:32.625Z,3.38
2022-09-26T01:06:06.860Z,4.20
2022-09-26T01:08:36.874Z,3.20
2022-09-26T01:11:14.785Z,3.58
2022-09-26T01:13:50.885Z,2.90
2022-09-26T01:16:31.925Z,2.42
2022-09-26T01:18:59.565Z,2.45
2022-09-26T01:24:18.422Z,2.30
2022-09-26T01:26:58.926Z,2.22
2022-09-26T01:29:28.978Z,2.30
2022-09-26T01:32:43.930Z,2.40
2022-09-26T01:35:11.459Z,2.35
2022-09-26T01:38:00.880Z,2.20
2022-09-26T01:40:37.036Z,2.50
2022-09-26T01:43:13.882Z,2.53
2022-09-26T01:45:45.046Z,2.53
2022-09-26T01:48:23.908Z,2.75
2022-09-26T01:50:55.723Z,2.35
2022-09-26T01:53:32.895Z,3.10
2022-09-26T01:56:05.584Z,2.53
2022-09-26T01:58:41.925Z,2.65
2022-09-26T02:01:11.115Z,2.55
2022-09-26T02:03:40.824Z,2.38
2022-09-26T02:06:20.021Z,1.98
2022-09-26T02:08:49.906Z,2.10
2022-09-26T02:11:24.856Z,2.30
2022-09-26T02:14:20.808Z,2.78
2022-09-26T02:16:51.998Z,2.30
2022-09-26T02:19:26.950Z,2.38
2022-09-26T02:21:54.525Z,2.08
2022-09-26T02:26:56.958Z,2.40
2022-09-26T02:29:24.164Z,2.30
2022-09-26T02:32:06.001Z,2.30
2022-09-26T02:34:33.743Z,2.28
2022-09-26T02:39:35.336Z,2.70
2022-09-26T02:42:07.094Z,2.30
2022-09-26T02:44:55.927Z,2.60
2022-09-26T02:47:38.825Z,2.60
2022-09-26T02:50:24.954Z,2.70
2022-09-26T02:53:07.968Z,2.70
2022-09-26T02:55:54.023Z,2.70
2022-09-26T02:58:42.827Z,2.63
2022-09-26T03:01:13.572Z,2.90
2022-09-26T03:04:00.811Z,2.75
2022-09-26T03:06:31.093Z,3.70
2022-09-26T03:09:05.850Z,3.08
2022-09-26T03:11:34.005Z,3.17
2022-09-26T03:14:14.850Z,3.00
2022-09-26T03:16:44.483Z,2.88
2022-09-26T03:19:22.950Z,3.25
2022-09-26T03:21:50.209Z,3.50
2022-09-26T03:24:17.458Z,3.22
2022-09-26T03:26:50.830Z,3.80
2022-09-26T03:29:20.032Z,3.65
2022-09-26T03:31:56.935Z,3.95
2022-09-26T03:34:24.253Z,3.10
2022-09-26T03:36:51.722Z,4.30
2022-09-26T03:39:24.827Z,2.97
2022-09-26T03:41:52.017Z,2.72
2022-09-26T03:44:26.011Z,3.08
2022-09-26T03:46:53.311Z,3.47
2022-09-26T03:49:20.636Z,3.58
2022-09-26T03:51:55.008Z,3.28
2022-09-26T03:54:22.615Z,2.90
2022-09-26T03:59:23.049Z,3.20
2022-09-26T04:01:50.768Z,3.50
2022-09-26T04:04:24.939Z,3.17
2022-09-26T04:06:52.126Z,3.00
2022-09-26T04:09:19.663Z,2.95
2022-09-26T04:12:08.952Z,3.33
2022-09-26T04:14:43.501Z,3.20
2022-09-26T04:17:17.138Z,3.50
2022-09-26T04:19:44.284Z,3.00
2022-09-26T04:22:11.558Z,2.88
2022-09-26T04:24:46.028Z,3.20
2022-09-26T04:27:13.216Z,2.97
2022-09-26T04:29:47.082Z,2.60
2022-09-26T04:32:14.331Z,2.97
2022-09-26T04:34:41.423Z,3.03
2022-09-26T04:37:17.031Z,2.95
2022-09-26T04:39:44.329Z,2.38
2022-09-26T04:42:18.074Z,2.80
2022-09-26T04:44:45.268Z,2.30
2022-09-26T04:47:12.436Z,2.40
2022-09-26T04:49:45.966Z,2.95
2022-09-26T04:52:14.002Z,2.80
2022-09-26T04:54:41.111Z,3.00
2022-09-26T04:57:19.513Z,2.80
2022-09-26T04:59:47.409Z,2.65
2022-09-26T05:02:21.016Z,3.05
2022-09-26T05:04:48.385Z,2.85
2022-09-26T05:07:16.339Z,3.00
2022-09-26T05:09:49.965Z,3.20
2022-09-26T05:12:23.922Z,2.42
2022-09-26T05:15:04.090Z,2.88
2022-09-26T05:17:31.579Z,2.60
2022-09-26T05:20:00.414Z,2.42
2022-09-26T05:22:37.059Z,2.35
2022-09-26T05:25:23.756Z,2.55
2022-09-26T05:27:58.027Z,2.65
2022-09-26T05:30:31.268Z,2.72
2022-09-26T05:33:05.122Z,2.75
2022-09-26T05:35:34.796Z,3.00
2022-09-26T05:38:02.614Z,2.88
2022-09-26T05:40:55.149Z,2.67
2022-09-26T05:43:22.840Z,2.33
2022-09-26T05:48:23.969Z,2.50
2022-09-26T05:50:51.438Z,2.35
2022-09-26T05:53:26.097Z,3.05
2022-09-26T05:55:53.325Z,2.35
2022-09-26T05:58:20.416Z,3.20
2022-09-26T06:00:55.146Z,3.22
2022-09-26T06:03:23.027Z,2.75
2022-09-26T06:05:57.073Z,2.83
2022-09-26T06:08:24.370Z,2.75
2022-09-26T06:10:51.495Z,2.97
2022-09-26T06:13:28.180Z,2.63
2022-09-26T06:15:57.418Z,2.95
2022-09-26T06:18:24.603Z,3.28
2022-09-26T06:20:58.067Z,3.60
2022-09-26T06:23:25.571Z,3.35
2022-09-26T06:25:58.972Z,3.97
2022-09-26T06:28:26.523Z,3.33
2022-09-26T06:33:32.558Z,2.75
2022-09-26T06:36:01.255Z,2.92
2022-09-26T06:38:36.235Z,2.88
2022-09-26T06:41:03.884Z,3.00
2022-09-26T06:43:31.414Z,2.72
2022-09-26T06:46:05.134Z,2.58
2022-09-26T06:48:32.388Z,2.92
2022-09-26T06:51:07.290Z,2.47
2022-09-26T06:53:35.044Z,2.45
2022-09-26T06:56:02.934Z,2.78
2022-09-26T06:58:37.075Z,3.08
2022-09-26T07:01:04.603Z,2.65
2022-09-26T07:06:06.179Z,2.08
2022-09-26T07:09:00.538Z,2.60
2022-09-26T07:12:09.821Z,3.03
2022-09-26T07:14:21.015Z,2.05
2022-09-26T07:17:01.192Z,2.40
2022-09-26T07:19:28.658Z,2.35
2022-09-26T07:21:56.374Z,2.35
2022-09-26T07:24:29.976Z,2.10
2022-09-26T07:26:57.178Z,2.45
2022-09-26T07:29:31.037Z,1.67
2022-09-26T07:31:59.309Z,2.55
2022-09-26T07:34:27.125Z,2.20
2022-09-26T07:37:02.215Z,2.20
2022-09-26T07:39:29.313Z,2.42
2022-09-26T07:41:56.814Z,2.10
2022-09-26T07:47:37.065Z,2.13
2022-09-26T07:50:21.082Z,2.15
2022-09-26T07:52:49.451Z,2.35
2022-09-26T07:55:24.219Z,2.33
2022-09-26T07:57:51.444Z,2.10
2022-09-26T08:00:19.679Z,1.98
2022-09-26T08:02:54.052Z,2.15
2022-09-26T08:05:21.323Z,2.30
2022-09-26T08:07:56.057Z,2.42
2022-09-26T08:10:24.411Z,2.28
2022-09-26T08:13:08.389Z,2.38
2022-09-26T08:15:41.941Z,2.70
2022-09-26T08:18:16.319Z,2.35
2022-09-26T08:20:47.044Z,2.20
2022-09-26T08:23:24.153Z,2.30
2022-09-26T08:25:57.915Z,2.10
2022-09-26T08:28:33.045Z,1.90
2022-09-26T08:31:09.133Z,2.55
2022-09-26T08:33:40.719Z,2.28
2022-09-26T08:36:16.085Z,3.13
2022-09-26T08:38:43.460Z,1.90
2022-09-26T08:41:32.953Z,2.22
2022-09-26T08:44:06.403Z,2.15
2022-09-26T08:46:58.009Z,2.40
2022-09-26T08:49:50.345Z,1.80
2022-09-26T08:52:26.948Z,2.22
2022-09-26T08:54:55.343Z,1.98
2022-09-26T08:57:46.985Z,1.92
2022-09-26T09:00:14.350Z,1.90
2022-09-26T09:02:45.949Z,1.92
2022-09-26T09:05:25.064Z,1.98
2022-09-26T09:07:54.354Z,1.77
2022-09-26T09:10:34.035Z,2.10
2022-09-26T09:13:20.995Z,2.10
2022-09-26T09:16:07.113Z,2.00
2022-09-26T09:18:43.482Z,2.10
2022-09-26T09:21:20.151Z,1.90
2022-09-26T09:23:53.728Z,2.03
2022-09-26T09:29:28.358Z,1.77
2022-09-26T09:32:04.082Z,1.40
2022-09-26T09:34:38.807Z,2.00
2022-09-26T09:37:18.112Z,1.73
2022-09-26T09:39:53.947Z,1.70
2022-09-26T09:42:24.504Z,1.75
2022-09-26T09:45:12.949Z,1.60
2022-09-26T09:47:40.601Z,1.60
2022-09-26T09:52:50.727Z,1.50
2022-09-26T09:55:39.951Z,2.38
2022-09-26T09:58:07.430Z,1.90
2022-09-26T10:00:47.759Z,1.30
2022-09-26T10:03:24.191Z,1.60
2022-09-26T10:05:59.995Z,1.23
2022-09-26T10:08:32.348Z,1.85
2022-09-26T10:10:59.791Z,1.52
2022-09-26T10:13:38.036Z,1.80
2022-09-26T10:19:09.018Z,1.25
2022-09-26T10:21:42.501Z,1.40
2022-09-26T10:24:31.142Z,1.35
2022-09-26T10:26:58.254Z,1.70
2022-09-26T10:29:43.120Z,1.70
2022-09-26T10:32:11.470Z,1.60
2022-09-26T10:34:48.176Z,1.13
2022-09-26T10:37:22.866Z,1.40
2022-09-26T10:40:20.241Z,1.75
2022-09-26T10:42:47.474Z,1.55
2022-09-26T10:45:16.280Z,1.30
2022-09-26T10:47:53.143Z,1.30
2022-09-26T10:50:27.775Z,1.55
2022-09-26T10:53:04.188Z,1.45
2022-09-26T10:55:39.536Z,1.58
2022-09-26T10:58:16.209Z,1.00
2022-09-26T11:00:49.356Z,1.40
2022-09-26T11:03:25.120Z,1.48
2022-09-26T11:06:05.983Z,1.25
2022-09-26T11:08:41.090Z,1.30
2022-09-26T11:11:15.159Z,1.85
2022-09-26T11:13:57.239Z,1.20
2022-09-26T11:16:51.276Z,1.20
2022-09-26T11:19:33.152Z,1.52
2022-09-26T11:22:22.255Z,1.30
2022-09-26T11:25:06.254Z,1.30
2022-09-26T11:27:43.920Z,1.40
2022-09-26T11:30:28.131Z,1.05
2022-09-26T11:32:56.987Z,1.17
2022-09-26T11:35:42.208Z,0.90
2022-09-26T11:38:09.410Z,1.67
2022-09-26T11:40:49.264Z,1.33
2022-09-26T11:43:35.140Z,1.13
2022-09-26T11:46:22.237Z,1.30
2022-09-26T11:48:55.358Z,1.25
2022-09-26T11:51:45.193Z,0.85
2022-09-26T11:54:18.214Z,1.00
2022-09-26T11:57:15.140Z,0.82
2022-09-26T11:59:45.061Z,1.20
2022-09-26T12:02:40.206Z,1.00
2022-09-26T12:05:18.168Z,1.10
2022-09-26T12:07:49.374Z,1.02
2022-09-26T12:10:26.063Z,0.63
2022-09-26T12:13:23.033Z,0.70
2022-09-26T12:16:22.114Z,0.90
2022-09-26T12:19:02.428Z,1.02
2022-09-26T12:21:36.032Z,0.57
2022-09-26T12:24:08.000Z,0.75
2022-09-26T12:26:58.026Z,0.93
2022-09-26T12:29:43.626Z,0.70
2022-09-26T12:32:27.037Z,0.63
2022-09-26T12:35:04.339Z,0.80
2022-09-26T12:37:48.059Z,0.90
2022-09-26T12:40:18.156Z,0.70
2022-09-26T12:42:45.726Z,0.80
2022-09-26T12:47:52.530Z,0.82
2022-09-26T12:50:37.208Z,0.88
2022-09-26T12:53:31.058Z,0.90
2022-09-26T12:56:07.053Z,0.90
2022-09-26T12:58:44.044Z,1.00
2022-09-26T13:01:29.281Z,1.00
2022-09-26T13:04:28.040Z,0.90
2022-09-26T13:07:17.895Z,1.17
2022-09-26T13:09:58.036Z,1.10
2022-09-26T13:12:26.033Z,0.90
2022-09-26T13:15:24.999Z,1.33
2022-09-26T13:18:04.051Z,0.93
2022-09-26T13:20:44.010Z,0.90
2022-09-26T13:23:27.475Z,0.57
2022-09-26T13:26:04.047Z,0.88
2022-09-26T13:28:37.961Z,0.90
2022-09-26T13:31:16.075Z,0.50
2022-09-26T13:36:18.166Z,45.95
2022-09-26T13:38:57.684Z,5.78
2022-09-26T13:41:50.005Z,0.80
2022-09-26T13:44:37.452Z,0.68
2022-09-26T13:47:19.046Z,0.80
2022-09-26T13:49:55.391Z,55.42
2022-09-26T13:52:47.019Z,27.42
2022-09-26T13:55:19.729Z,35.67
2022-09-26T13:57:56.024Z,76.95
2022-09-26T14:00:31.958Z,54.55
2022-09-26T14:03:22.311Z,24.73
2022-09-26T14:05:51.009Z,33.63
2022-09-26T14:08:52.089Z,32.05
2022-09-26T14:11:28.772Z,39.13
2022-09-26T14:14:28.032Z,11.43
2022-09-26T14:17:10.161Z,5.00
2022-09-26T14:19:46.022Z,1.63
2022-09-26T14:22:25.126Z,6.97
2022-09-26T14:24:53.220Z,2.10
2022-09-26T14:27:49.145Z,2.13
2022-09-26T14:30:30.249Z,0.82
2022-09-26T14:33:09.278Z,0.73
2022-09-26T14:35:38.697Z,0.98
2022-09-26T14:38:17.149Z,1.15
2022-09-26T14:40:55.435Z,0.70
2022-09-26T14:46:06.556Z,0.95
2022-09-26T14:48:40.164Z,1.05
2022-09-26T14:51:27.575Z,1.25
2022-09-26T14:54:11.250Z,1.60
2022-09-26T14:56:47.088Z,1.55
2022-09-26T14:59:17.570Z,1.50
2022-09-26T15:01:45.343Z,1.30
2022-09-26T15:04:28.155Z,1.48
2022-09-26T15:07:05.086Z,0.95
2022-09-26T15:09:49.305Z,0.88
2022-09-26T15:12:18.849Z,9.40
2022-09-26T15:14:55.159Z,0.80
2022-09-26T15:17:28.642Z,1.25
2022-09-26T15:20:03.179Z,1.30
2022-09-26T15:22:31.785Z,1.10
2022-09-26T15:25:19.230Z,1.15
2022-09-26T15:27:48.724Z,1.20
2022-09-26T15:30:26.181Z,1.02
2022-09-26T15:32:57.741Z,1.33
2022-09-26T15:35:33.160Z,1.38
2022-09-26T15:38:01.420Z,1.23
2022-09-26T15:40:29.952Z,1.10
2022-09-26T15:43:14.157Z,1.27
2022-09-26T15:45:47.698Z,1.50
2022-09-26T15:48:28.183Z,1.33
2022-09-26T15:50:55.265Z,1.77
2022-09-26T15:53:39.297Z,1.70
2022-09-26T15:56:09.326Z,1.50
2022-09-26T15:58:47.154Z,0.98
2022-09-26T16:01:21.825Z,1.25
2022-09-26T16:04:07.220Z,1.65
2022-09-26T16:06:36.223Z,1.50
2022-09-26T16:09:19.160Z,1.30
2022-09-26T16:12:09.324Z,2.80
2022-09-26T16:15:06.261Z,1.80
2022-09-26T16:17:49.139Z,2.10
2022-09-26T16:20:23.202Z,1.80
2022-09-26T16:22:51.646Z,1.70
2022-09-26T16:25:25.291Z,1.80
2022-09-26T16:27:52.514Z,1.80
2022-09-26T16:30:32.228Z,1.83
2022-09-26T16:33:08.343Z,2.22
2022-09-26T16:35:43.301Z,2.20
2022-09-26T16:38:23.932Z,2.20
2022-09-26T16:40:59.513Z,2.53
2022-09-26T16:43:31.667Z,2.20
2022-09-26T16:46:16.253Z,3.38
2022-09-26T16:48:52.262Z,2.60
2022-09-26T16:51:28.268Z,2.10
2022-09-26T16:53:55.385Z,2.00
2022-09-26T16:56:23.926Z,2.05
2022-09-26T16:58:59.300Z,2.47
2022-09-26T17:01:45.324Z,2.20
2022-09-26T17:04:27.262Z,2.22
2022-09-26T17:06:54.868Z,2.08
2022-09-26T17:11:56.601Z,1.77
2022-09-26T17:14:40.585Z,2.45
2022-09-26T17:17:16.662Z,2.10
2022-09-26T17:19:54.245Z,2.13
2022-09-26T17:22:26.711Z,2.30
2022-09-26T17:25:01.150Z,2.22
2022-09-26T17:27:31.343Z,2.75
2022-09-26T17:30:09.395Z,2.50
2022-09-26T17:32:38.518Z,2.83
2022-09-26T17:35:18.256Z,2.45
2022-09-26T17:37:45.774Z,2.30
2022-09-26T17:40:25.175Z,2.38
2022-09-26T17:42:55.354Z,2.05
2022-09-26T17:45:32.137Z,2.03
2022-09-26T17:48:01.127Z,2.13
2022-09-26T17:50:29.861Z,2.33
2022-09-26T17:53:07.198Z,2.13
2022-09-26T17:55:34.486Z,1.97
2022-09-26T17:58:09.203Z,2.25
2022-09-26T18:00:38.806Z,2.47
2022-09-26T18:03:18.822Z,1.63
2022-09-26T18:05:46.451Z,2.33
2022-09-26T18:08:20.267Z,2.50
2022-09-26T18:10:52.665Z,2.63
2022-09-26T18:13:31.242Z,2.33
2022-09-26T18:16:06.152Z,2.40
2022-09-26T18:18:46.305Z,2.60
2022-09-26T18:21:18.570Z,2.83
2022-09-26T18:23:55.460Z,2.70
2022-09-26T18:26:28.082Z,2.85
2022-09-26T18:29:03.352Z,2.85
2022-09-26T18:31:38.180Z,2.40
2022-09-26T18:34:05.428Z,2.25
2022-09-26T18:36:40.246Z,2.60
2022-09-26T18:39:07.595Z,2.22
2022-09-26T18:41:35.322Z,2.17
2022-09-26T18:44:09.492Z,2.17
2022-09-26T18:46:37.751Z,2.10
2022-09-26T18:49:06.368Z,2.22
2022-09-26T18:51:41.205Z,2.30
2022-09-26T18:54:15.726Z,2.67
2022-09-26T18:57:08.342Z,2.17
2022-09-26T18:59:35.508Z,2.20
2022-09-26T19:02:11.599Z,2.30
2022-09-26T19:04:39.137Z,2.13
2022-09-26T19:07:07.704Z,2.05
2022-09-26T19:09:43.384Z,2.20
2022-09-26T19:12:13.238Z,2.33
2022-09-26T19:14:47.472Z,2.10
2022-09-26T19:17:21.423Z,2.08
2022-09-26T19:19:55.478Z,2.22
2022-09-26T19:22:22.816Z,2.13
2022-09-26T19:24:49.909Z,2.13
2022-09-26T19:27:26.412Z,2.15
2022-09-26T19:30:03.672Z,2.20
2022-09-26T19:32:39.241Z,2.42
2022-09-26T19:35:08.123Z,1.92
2022-09-26T19:37:42.381Z,2.20
2022-09-26T19:40:13.850Z,2.05
2022-09-26T19:42:49.410Z,2.42
2022-09-26T19:45:17.295Z,2.30
2022-09-26T19:47:46.217Z,2.08
2022-09-26T19:50:24.252Z,2.28
2022-09-26T19:52:52.136Z,2.20
2022-09-26T19:55:28.518Z,2.40
2022-09-26T19:57:57.415Z,2.30
2022-09-26T20:00:26.247Z,2.20
2022-09-26T20:03:00.586Z,2.50
2022-09-26T20:05:27.992Z,2.30
2022-09-26T20:07:55.100Z,2.30
2022-09-26T20:10:31.264Z,2.33
2022-09-26T20:13:05.158Z,2.47
2022-09-26T20:15:45.364Z,2.33
2022-09-26T20:18:14.097Z,2.40
2022-09-26T20:20:48.259Z,2.45
2022-09-26T20:23:18.346Z,2.00
2022-09-26T20:25:46.423Z,2.45
2022-09-26T20:28:21.446Z,2.10
2022-09-26T20:30:58.230Z,2.40
2022-09-26T20:33:26.369Z,2.45
2022-09-26T20:36:06.300Z,2.17
2022-09-26T20:38:41.923Z,2.30
2022-09-26T20:41:26.167Z,2.38
2022-09-26T20:44:01.873Z,3.00
2022-09-26T20:46:37.258Z,2.15
2022-09-26T20:49:07.031Z,2.38
2022-09-26T20:51:35.026Z,2.22
2022-09-26T20:54:09.284Z,2.22
2022-09-26T20:56:36.848Z,2.90
2022-09-26T21:01:37.346Z,2.03
2022-09-26T21:04:05.439Z,2.25
2022-09-26T21:06:34.003Z,2.95
2022-09-26T21:09:08.410Z,2.38
2022-09-26T21:11:35.674Z,2.40
2022-09-26T21:14:02.783Z,2.30
2022-09-26T21:16:36.343Z,2.33
2022-09-26T21:19:10.314Z,2.40
2022-09-26T21:21:44.394Z,2.63
2022-09-26T21:24:24.251Z,2.40
2022-09-26T21:26:59.444Z,2.40
2022-09-26T21:29:27.545Z,2.55
2022-09-26T21:31:56.187Z,2.67
2022-09-26T21:34:31.247Z,2.60
2022-09-26T21:36:59.505Z,2.45
2022-09-26T21:39:33.398Z,2.47
2022-09-26T21:42:03.426Z,2.20
2022-09-26T21:44:43.375Z,2.30
2022-09-26T21:47:10.572Z,3.10
2022-09-26T21:49:37.700Z,2.67
2022-09-26T21:52:26.279Z,2.80
2022-09-26T21:54:53.535Z,2.55
2022-09-26T21:57:30.384Z,2.17
2022-09-26T21:59:58.638Z,2.08
2022-09-26T22:02:32.335Z,2.30
2022-09-26T22:04:59.744Z,2.90
2022-09-26T22:07:40.508Z,2.67
2022-09-26T22:10:15.641Z,2.83
2022-09-26T22:12:49.324Z,2.30
2022-09-26T22:15:23.240Z,2.53
2022-09-26T22:18:04.422Z,2.50
2022-09-26T22:20:31.530Z,2.47
2022-09-26T22:23:00.060Z,2.50
2022-09-26T22:25:33.335Z,2.25
2022-09-26T22:28:00.500Z,2.33
2022-09-26T22:30:27.685Z,2.40
2022-09-26T22:33:01.285Z,2.50
2022-09-26T22:35:35.244Z,2.50
2022-09-26T22:38:09.446Z,2.10
2022-09-26T22:40:36.672Z,2.65
2022-09-26T22:43:03.814Z,2.05
2022-09-26T22:45:37.308Z,2.58
2022-09-26T22:48:04.571Z,2.30
2022-09-26T22:50:38.369Z,2.55
2022-09-26T22:53:05.853Z,2.58
2022-09-26T22:55:32.961Z,2.63
2022-09-26T22:58:06.328Z,2.92
2022-09-26T23:00:33.511Z,2.10
2022-09-26T23:03:00.651Z,2.67
2022-09-26T23:05:34.281Z,2.30
2022-09-26T23:08:01.641Z,2.25
2022-09-26T23:10:35.391Z,2.65
2022-09-26T23:13:03.410Z,2.20
2022-09-26T23:15:50.331Z,2.30
2022-09-26T23:18:17.606Z,2.40
2022-09-26T23:20:45.321Z,2.75
2022-09-26T23:23:19.402Z,2.22
2022-09-26T23:25:47.710Z,2.20
2022-09-26T23:28:22.467Z,2.55
2022-09-26T23:30:50.661Z,2.47
2022-09-26T23:33:17.876Z,2.60
2022-09-26T23:35:52.315Z,2.30
2022-09-26T23:38:19.587Z,2.25
2022-09-26T23:40:54.591Z,2.22
2022-09-26T23:43:21.963Z,2.20
2022-09-26T23:45:49.370Z,2.25
2022-09-26T23:48:23.341Z,2.13
2022-09-26T23:50:50.656Z,2.20
2022-09-26T23:53:24.400Z,2.20
2022-09-26T23:55:51.593Z,2.13
2022-09-26T23:58:25.449Z,2.00
